Terminal Aerodrome Forecast
Issued by NWS Sioux Falls, SD

Home | Current Version | Previous Version | Text Only | Print | Product List | Glossary On
Versions: 1 2 3 4 5 6 7 8 9 10 11 12 13 14
278
FTUS43 KFSD 291550 AAB
TAFFSD
TAF AMD
KFSD 291550Z 2916/3012 32017G25KT P6SM BKN035
     FM291700 32018G26KT P6SM BKN045
     FM300100 30012KT P6SM SCT100
     FM300300 29007KT P6SM SCT150=

USA.gov is the U.S. government's official web portal to all federal, state and local government web resources and services.